Time;durP1;ratioP1;P1;durP2;ratioP2;P2;SDS_P1;SDS_P2;PMS_P1;PMS_P2;Temp;Humidity;BMP_temperature;BMP_pressure;BME280_temperature;BME280_humidity;BME280_pressure;Samples;Min_cycle;Max_cycle;Signal;HPM_P1;HPM_P2
2021/03/16 00:01:39;;;;;;;10.57;3.73;;;;;;;3.52;82.32;100458.75;5053337;28;20240;-76
2021/03/16 00:04:05;;;;;;;12.40;4.17;;;;;;;3.54;82.41;100451.91;5062031;28;20274;-76
2021/03/16 00:06:31;;;;;;;7.80;3.67;;;;;;;3.56;82.30;100454.50;5055456;28;20232;-75
2021/03/16 00:08:56;;;;;;;11.13;3.40;;;;;;;3.58;82.38;100469.13;5055665;28;20981;-76
2021/03/16 00:11:23;;;;;;;10.73;4.10;;;;;;;3.54;82.96;100464.81;5052139;28;20195;-76
2021/03/16 00:13:49;;;;;;;12.17;4.00;;;;;;;3.61;82.13;100480.34;5055266;28;20240;-76
2021/03/16 00:16:15;;;;;;;11.27;4.03;;;;;;;3.65;81.60;100471.78;5053131;28;20244;-76
2021/03/16 00:18:41;;;;;;;22.40;4.90;;;;;;;3.67;81.26;100477.84;5051674;28;20198;-76
2021/03/16 00:21:07;;;;;;;15.23;4.10;;;;;;;3.61;81.62;100476.06;5053096;28;20208;-76
2021/03/16 00:23:32;;;;;;;12.93;4.50;;;;;;;3.70;81.52;100477.88;5048067;28;20289;-76
2021/03/16 00:25:58;;;;;;;8.57;4.03;;;;;;;3.62;81.05;100476.94;5052383;28;20240;-76
2021/03/16 00:28:25;;;;;;;9.80;4.47;;;;;;;3.56;82.00;100481.16;5053277;28;20194;-75
2021/03/16 00:30:51;;;;;;;10.50;3.80;;;;;;;3.45;81.75;100481.91;5051171;28;20201;-77
2021/03/16 00:33:17;;;;;;;13.67;4.00;;;;;;;3.51;81.14;100493.19;5053730;28;20682;-76
2021/03/16 00:35:43;;;;;;;13.63;4.20;;;;;;;3.50;80.47;100483.69;5050320;28;20241;-76
2021/03/16 00:38:08;;;;;;;12.47;4.30;;;;;;;3.46;80.37;100491.38;5058965;28;20728;-75
2021/03/16 00:40:34;;;;;;;7.63;3.67;;;;;;;3.47;80.44;100485.34;5053301;28;20243;-76
2021/03/16 00:43:00;;;;;;;9.43;4.17;;;;;;;3.48;80.33;100497.44;5053467;28;20202;-76
2021/03/16 00:45:27;;;;;;;11.97;4.07;;;;;;;3.52;80.68;100505.22;5052900;28;20217;-76
2021/03/16 00:47:53;;;;;;;9.20;3.97;;;;;;;3.56;80.89;100501.81;5051408;28;20232;-75
2021/03/16 00:50:19;;;;;;;12.03;4.17;;;;;;;3.66;80.51;100509.66;5053825;28;20232;-75
2021/03/16 00:52:45;;;;;;;8.57;5.17;;;;;;;3.49;80.75;100509.47;5054325;28;20288;-75
2021/03/16 00:55:12;;;;;;;10.37;4.07;;;;;;;3.53;81.21;100512.13;5052618;28;20229;-75
2021/03/16 00:57:38;;;;;;;12.13;3.83;;;;;;;3.60;80.70;100512.19;5053497;28;20248;-76
2021/03/16 01:00:05;;;;;;;10.53;3.90;;;;;;;3.61;80.41;100516.47;5051780;28;20205;-76
2021/03/16 01:02:32;;;;;;;10.73;5.03;;;;;;;3.45;81.45;100524.06;5052445;28;20214;-76
2021/03/16 01:04:58;;;;;;;12.53;4.40;;;;;;;3.41;81.38;100524.00;5051282;28;20275;-75
2021/03/16 01:07:23;;;;;;;14.87;5.17;;;;;;;3.48;81.41;100525.81;5051205;28;20577;-76
2021/03/16 01:09:49;;;;;;;16.10;4.70;;;;;;;3.49;81.55;100532.69;5050846;28;20229;-76
2021/03/16 01:12:15;;;;;;;9.03;4.40;;;;;;;3.45;80.76;100534.41;5051466;28;20201;-76
2021/03/16 01:14:42;;;;;;;10.00;4.07;;;;;;;3.46;81.42;100538.69;5053008;28;20225;-76
2021/03/16 01:17:08;;;;;;;9.17;4.53;;;;;;;3.53;80.94;100534.50;5054130;28;20219;-76
2021/03/16 01:19:35;;;;;;;8.30;4.20;;;;;;;3.43;81.53;100542.94;5054164;28;20217;-75
2021/03/16 01:22:01;;;;;;;16.07;4.17;;;;;;;3.39;81.02;100552.38;5055531;28;20300;-76
2021/03/16 01:24:27;;;;;;;11.20;4.07;;;;;;;3.42;81.20;100549.81;5059632;28;20217;-76
2021/03/16 01:26:52;;;;;;;15.87;5.07;;;;;;;3.44;80.48;100552.44;5058716;28;20223;-75
2021/03/16 01:29:18;;;;;;;10.10;4.83;;;;;;;3.41;81.06;100553.28;5063491;28;20232;-75
2021/03/16 01:31:44;;;;;;;9.53;3.80;;;;;;;3.33;80.63;100554.88;5058103;28;20205;-75
2021/03/16 01:34:10;;;;;;;13.43;4.50;;;;;;;3.36;81.48;100555.78;5055518;28;20241;-75
2021/03/16 01:36:37;;;;;;;8.50;3.70;;;;;;;3.30;80.93;100560.88;5059116;28;20204;-75
2021/03/16 01:39:03;;;;;;;14.07;4.53;;;;;;;3.32;81.01;100560.88;5067743;28;20550;-75
2021/03/16 01:41:29;;;;;;;13.17;3.87;;;;;;;3.23;81.99;100560.75;5058684;28;20218;-76
2021/03/16 01:43:55;;;;;;;12.70;3.27;;;;;;;3.17;81.79;100559.84;5054714;28;20222;-76
2021/03/16 01:46:21;;;;;;;10.87;3.10;;;;;;;3.19;82.36;100570.16;5055192;28;20619;-76
2021/03/16 01:48:47;;;;;;;11.27;3.90;;;;;;;3.21;82.18;100563.34;5062579;28;20203;-76
2021/03/16 01:51:13;;;;;;;13.80;3.83;;;;;;;3.17;82.49;100567.59;5056786;28;20667;-76
2021/03/16 01:53:41;;;;;;;10.57;2.97;;;;;;;3.09;82.69;100564.03;5066030;28;20225;-76
2021/03/16 01:56:09;;;;;;;13.47;3.17;;;;;;;3.08;82.81;100570.03;5062734;28;20192;-75
2021/03/16 01:58:37;;;;;;;12.27;3.20;;;;;;;3.05;82.64;100569.13;5067192;28;20205;-76
2021/03/16 02:01:03;;;;;;;13.33;3.07;;;;;;;3.09;82.71;100566.63;5048796;28;20197;-76
2021/03/16 02:03:30;;;;;;;8.60;2.87;;;;;;;3.09;83.42;100568.31;5062173;28;20210;-76
2021/03/16 02:05:56;;;;;;;11.00;2.83;;;;;;;3.00;83.08;100570.78;5055100;28;20248;-76
2021/03/16 02:08:28;;;;;;;8.97;3.20;;;;;;;2.85;83.65;100571.41;5054845;28;20203;-76
2021/03/16 02:11:04;;;;;;;11.93;2.50;;;;;;;2.66;84.87;100570.28;5057096;28;20227;-76
2021/03/16 02:13:38;;;;;;;14.87;3.90;;;;;;;2.48;85.50;100571.75;5064911;28;20211;-76
2021/03/16 02:16:09;;;;;;;9.27;3.40;;;;;;;2.30;85.79;100574.00;5047063;28;20702;-76
2021/03/16 02:18:40;;;;;;;11.17;3.27;;;;;;;2.31;86.27;100578.31;5054500;28;20198;-76
2021/03/16 02:21:10;;;;;;;6.10;3.03;;;;;;;2.21;86.36;100579.84;5068615;28;20197;-76
2021/03/16 02:23:59;;;;;;;12.10;3.37;;;;;;;2.27;86.23;100579.97;5058821;28;20248;-74
2021/03/16 02:26:30;;;;;;;15.90;3.73;;;;;;;2.10;86.02;100581.38;5056684;28;20554;-75
2021/03/16 02:29:07;;;;;;;9.03;3.10;;;;;;;2.14;85.74;100585.72;5064265;28;20209;-74
2021/03/16 02:31:34;;;;;;;6.63;2.93;;;;;;;2.02;86.21;100586.38;5065578;28;20205;-76
2021/03/16 02:34:02;;;;;;;9.63;2.90;;;;;;;1.92;86.73;100592.19;5063628;28;20294;-76
2021/03/16 02:36:28;;;;;;;17.23;3.03;;;;;;;1.88;86.80;100592.97;5072798;28;20231;-76
2021/03/16 02:38:56;;;;;;;13.10;3.83;;;;;;;1.88;87.42;100600.72;5055045;28;20221;-76
2021/03/16 02:41:23;;;;;;;7.83;2.40;;;;;;;1.86;86.33;100598.09;5059532;28;20193;-76
2021/03/16 02:43:49;;;;;;;14.03;3.30;;;;;;;1.97;86.69;100599.19;5061199;28;20233;-77
2021/03/16 02:46:18;;;;;;;8.43;3.10;;;;;;;1.85;86.40;100606.69;5057993;28;20220;-76
2021/03/16 02:48:46;;;;;;;12.60;3.03;;;;;;;1.83;87.22;100613.50;5055963;28;20676;-76
2021/03/16 02:51:14;;;;;;;8.00;2.80;;;;;;;1.78;86.68;100609.94;5060650;28;20287;-76
2021/03/16 02:53:41;;;;;;;6.83;2.60;;;;;;;1.78;87.13;100617.66;5061788;28;20229;-76
2021/03/16 02:56:08;;;;;;;9.60;2.83;;;;;;;1.79;87.08;100622.84;5060406;28;20556;-76
2021/03/16 02:58:35;;;;;;;11.27;2.63;;;;;;;1.77;87.36;100621.09;5057084;28;20197;-76
2021/03/16 03:01:02;;;;;;;11.40;2.90;;;;;;;1.69;86.82;100620.09;5067568;28;20236;-76
2021/03/16 03:03:30;;;;;;;14.90;4.00;;;;;;;1.65;87.37;100623.44;5064300;28;20193;-76
2021/03/16 03:05:58;;;;;;;7.53;2.63;;;;;;;1.67;87.35;100629.47;5054294;28;20205;-76
2021/03/16 03:08:25;;;;;;;15.23;3.70;;;;;;;1.67;86.75;100625.19;5060517;28;20197;-76
2021/03/16 03:10:51;;;;;;;13.13;3.00;;;;;;;1.64;87.32;100631.97;5065221;28;20212;-75
2021/03/16 03:13:17;;;;;;;9.97;2.20;;;;;;;1.68;87.13;100638.91;5056949;28;20228;-76
2021/03/16 03:15:43;;;;;;;16.30;2.80;;;;;;;1.70;87.08;100640.69;5059674;28;20260;-75
2021/03/16 03:18:09;;;;;;;15.17;3.43;;;;;;;1.83;86.78;100648.66;5061431;28;20259;-77
2021/03/16 03:20:37;;;;;;;10.10;2.77;;;;;;;1.83;85.93;100648.66;5052485;28;20211;-76
2021/03/16 03:23:10;;;;;;;10.70;2.70;;;;;;;1.84;86.75;100645.25;5061047;28;20202;-76
2021/03/16 03:25:39;;;;;;;9.93;3.03;;;;;;;1.79;86.97;100652.88;5054619;28;20221;-76
2021/03/16 03:28:15;;;;;;;11.70;3.00;;;;;;;1.69;86.89;100654.41;5062267;28;20202;-76
2021/03/16 03:30:43;;;;;;;12.57;3.60;;;;;;;1.63;87.02;100663.69;5064772;28;20213;-76
2021/03/16 03:33:12;;;;;;;9.40;3.37;;;;;;;1.67;87.37;100662.94;5053291;28;20214;-75
2021/03/16 03:35:39;;;;;;;13.23;3.70;;;;;;;1.78;87.06;100671.72;5058172;28;20225;-76
2021/03/16 03:38:08;;;;;;;12.20;3.50;;;;;;;1.78;87.24;100666.56;5060690;28;20676;-76
2021/03/16 03:40:36;;;;;;;7.87;2.97;;;;;;;1.84;88.22;100673.56;5051481;28;20590;-76
2021/03/16 03:43:06;;;;;;;14.67;4.10;;;;;;;2.02;86.91;100686.78;5060529;28;20254;-76
2021/03/16 03:45:34;;;;;;;9.73;2.97;;;;;;;2.12;86.97;100680.09;5061877;28;20225;-76
2021/03/16 03:48:03;;;;;;;8.97;2.77;;;;;;;2.11;87.45;100678.38;5057633;28;20198;-76
2021/03/16 03:50:29;;;;;;;11.60;3.60;;;;;;;1.92;87.36;100666.84;5056486;28;20255;-76
2021/03/16 03:52:58;;;;;;;14.30;4.50;;;;;;;1.88;88.08;100677.91;5059837;28;20258;-76
2021/03/16 03:55:25;;;;;;;10.70;4.10;;;;;;;1.87;88.40;100674.50;5062196;28;20228;-75
2021/03/16 03:57:51;;;;;;;6.50;3.90;;;;;;;1.89;88.37;100682.25;5053978;28;20684;-76
2021/03/16 04:00:19;;;;;;;13.77;4.53;;;;;;;1.89;88.07;100683.09;5056111;28;20228;-76
2021/03/16 04:02:45;;;;;;;15.07;4.57;;;;;;;1.91;88.50;100685.72;5066311;28;20197;-76
2021/03/16 04:05:13;;;;;;;17.47;5.53;;;;;;;1.93;88.12;100696.91;5056942;28;20218;-76
2021/03/16 04:07:39;;;;;;;11.10;4.87;;;;;;;2.03;87.71;100692.81;5067709;28;20207;-76
2021/03/16 04:10:08;;;;;;;13.17;4.50;;;;;;;2.02;88.13;100707.38;5060833;28;20201;-75
2021/03/16 04:12:36;;;;;;;15.57;5.20;;;;;;;2.12;88.24;100704.19;5049177;28;20267;-76
2021/03/16 04:15:04;;;;;;;13.97;5.07;;;;;;;1.99;87.71;100703.03;5054074;28;20227;-76
2021/03/16 04:17:30;;;;;;;18.87;5.47;;;;;;;2.06;87.79;100706.63;5055054;28;20197;-76
2021/03/16 04:19:56;;;;;;;13.50;5.80;;;;;;;2.06;88.39;100713.47;5059173;28;20624;-76
2021/03/16 04:22:22;;;;;;;18.67;5.37;;;;;;;2.16;87.72;100712.81;5052104;28;20571;-76
2021/03/16 04:24:50;;;;;;;14.73;5.63;;;;;;;2.22;88.20;100718.09;5059198;28;20275;-76
2021/03/16 04:27:16;;;;;;;15.33;5.80;;;;;;;2.23;87.33;100709.53;5060094;28;20193;-76
2021/03/16 04:29:42;;;;;;;25.90;6.40;;;;;;;2.16;87.98;100712.81;5054576;28;20205;-76
2021/03/16 04:32:08;;;;;;;14.47;6.03;;;;;;;2.12;87.67;100717.06;5060101;28;20233;-76
2021/03/16 04:34:34;;;;;;;18.87;6.33;;;;;;;2.12;87.80;100717.06;5050727;28;20254;-76
2021/03/16 04:37:00;;;;;;;18.33;5.70;;;;;;;2.16;88.37;100724.00;5058477;28;20243;-75
2021/03/16 04:39:26;;;;;;;18.63;6.50;;;;;;;2.04;88.36;100720.28;5054702;28;20691;-75
2021/03/16 04:41:52;;;;;;;14.73;8.03;;;;;;;2.05;88.85;100717.75;5055716;28;20197;-76
2021/03/16 04:44:18;;;;;;;15.13;7.10;;;;;;;2.05;89.03;100724.63;5060844;28;20217;-76
2021/03/16 04:46:44;;;;;;;18.13;6.33;;;;;;;2.09;87.86;100734.13;5055968;28;20201;-75
2021/03/16 04:49:10;;;;;;;19.40;7.33;;;;;;;2.11;87.60;100725.59;5064205;28;20274;-76
2021/03/16 04:51:36;;;;;;;23.23;7.90;;;;;;;2.09;87.85;100735.00;5057647;28;20216;-75
2021/03/16 04:54:02;;;;;;;17.00;7.40;;;;;;;2.09;88.27;100734.13;5072158;28;20591;-75
2021/03/16 04:56:28;;;;;;;14.17;7.47;;;;;;;2.14;87.78;100743.69;5075516;28;20225;-74
2021/03/16 04:58:54;;;;;;;11.67;7.00;;;;;;;2.15;87.04;100742.84;5083782;28;20216;-75
2021/03/16 05:01:20;;;;;;;13.40;7.33;;;;;;;2.07;87.20;100744.41;5072303;28;20224;-75
2021/03/16 05:03:46;;;;;;;15.97;7.10;;;;;;;2.10;87.72;100751.31;5085358;28;20236;-75
2021/03/16 05:06:12;;;;;;;16.10;6.53;;;;;;;2.15;87.44;100747.13;5070871;28;20198;-75
2021/03/16 05:08:38;;;;;;;21.17;7.63;;;;;;;2.17;85.75;100755.75;5077250;28;20201;-75
2021/03/16 05:11:04;;;;;;;17.33;7.27;;;;;;;2.12;86.65;100757.34;5065561;28;20202;-75
2021/03/16 05:13:30;;;;;;;14.47;6.57;;;;;;;2.07;86.97;100758.97;5076785;28;20202;-75
2021/03/16 05:15:55;;;;;;;18.80;7.13;;;;;;;2.00;86.81;100760.53;5063133;28;20680;-76
2021/03/16 05:18:22;;;;;;;17.50;7.57;;;;;;;1.89;86.30;100764.63;5064612;28;20201;-75
2021/03/16 05:20:48;;;;;;;18.43;8.83;;;;;;;1.91;86.36;100763.81;5070702;28;20678;-76
2021/03/16 05:23:14;;;;;;;14.40;8.00;;;;;;;1.99;86.37;100772.56;5074443;28;20208;-76
2021/03/16 05:25:40;;;;;;;13.10;6.97;;;;;;;2.04;86.79;100777.78;5070462;28;20225;-75
2021/03/16 05:28:06;;;;;;;12.00;7.30;;;;;;;2.04;85.42;100779.50;5069997;28;20225;-75
2021/03/16 05:30:31;;;;;;;9.17;8.07;;;;;;;2.07;86.17;100782.16;5070994;28;20200;-74
2021/03/16 05:32:59;;;;;;;18.77;7.23;;;;;;;2.06;86.23;100781.31;5069157;28;20217;-75
2021/03/16 05:35:28;;;;;;;15.70;7.97;;;;;;;1.98;87.17;100787.97;5086718;22;20228;-75
2021/03/16 05:37:55;;;;;;;18.90;9.73;;;;;;;1.93;86.57;100785.31;5063969;28;20229;-75
2021/03/16 05:40:21;;;;;;;16.10;8.47;;;;;;;1.96;86.40;100794.78;5068025;28;20220;-74
2021/03/16 05:42:47;;;;;;;16.90;7.83;;;;;;;1.92;86.88;100793.88;5069136;28;20204;-75
2021/03/16 05:45:14;;;;;;;13.90;8.23;;;;;;;2.04;85.90;100797.53;5061478;28;20217;-74
2021/03/16 05:47:42;;;;;;;18.07;9.23;;;;;;;1.99;87.03;100798.31;5068153;28;20205;-74
2021/03/16 05:50:09;;;;;;;15.80;8.57;;;;;;;1.96;87.39;100805.97;5058547;28;20256;-74
2021/03/16 05:52:37;;;;;;;20.77;8.73;;;;;;;1.87;87.37;100799.75;5070595;28;20201;-74
2021/03/16 05:55:04;;;;;;;16.07;8.77;;;;;;;1.98;87.43;100812.03;5070221;28;20636;-74
2021/03/16 05:57:30;;;;;;;11.87;8.73;;;;;;;1.99;86.54;100807.75;5067225;28;20679;-74
2021/03/16 05:59:56;;;;;;;16.50;8.60;;;;;;;2.01;86.24;100805.19;5059112;28;20202;-74
2021/03/16 06:02:22;;;;;;;17.33;7.97;;;;;;;2.06;86.06;100816.44;5067018;28;20295;-74
2021/03/16 06:04:48;;;;;;;18.33;9.10;;;;;;;1.96;86.90;100807.66;5072809;28;20813;-74
2021/03/16 06:07:15;;;;;;;16.33;7.87;;;;;;;2.00;87.04;100812.03;5069610;28;20223;-74
2021/03/16 06:09:42;;;;;;;20.30;8.73;;;;;;;1.99;87.01;100812.88;5072996;28;20197;-74
2021/03/16 06:12:09;;;;;;;14.63;7.93;;;;;;;2.02;86.51;100815.50;5068702;28;20196;-74
2021/03/16 06:14:36;;;;;;;14.50;8.87;;;;;;;2.02;87.04;100818.09;5066179;28;20221;-74
2021/03/16 06:17:04;;;;;;;18.23;8.27;;;;;;;2.09;87.27;100819.97;5069462;28;20227;-75
2021/03/16 06:19:31;;;;;;;17.43;7.97;;;;;;;2.11;87.70;100818.28;5074123;28;20201;-75
2021/03/16 06:21:59;;;;;;;16.03;8.13;;;;;;;2.12;87.31;100814.91;5067698;28;20660;-75
2021/03/16 06:24:25;;;;;;;9.37;7.70;;;;;;;2.27;87.58;100814.34;5073812;28;20284;-75
2021/03/16 06:26:52;;;;;;;23.30;8.83;;;;;;;2.21;86.76;100814.22;5062810;28;20731;-74
2021/03/16 06:29:19;;;;;;;20.43;9.00;;;;;;;2.22;86.93;100815.97;5073725;28;20273;-74
2021/03/16 06:31:46;;;;;;;12.40;7.73;;;;;;;2.28;86.92;100816.09;5070181;28;20234;-74
2021/03/16 06:34:19;;;;;;;19.90;6.87;;;;;;;2.25;87.66;100817.72;5069968;28;20229;-74
2021/03/16 06:36:48;;;;;;;14.97;7.33;;;;;;;2.33;87.85;100811.88;5064726;28;20715;-75
2021/03/16 06:39:18;;;;;;;11.90;6.57;;;;;;;2.39;86.53;100826.59;5063300;28;20229;-74
2021/03/16 06:41:44;;;;;;;13.40;7.00;;;;;;;2.42;87.21;100828.38;5064415;28;20208;-74
2021/03/16 06:44:16;;;;;;;12.10;6.60;;;;;;;2.50;87.26;100826.84;5073324;28;20279;-74
2021/03/16 06:46:43;;;;;;;15.60;7.47;;;;;;;2.55;86.33;100832.94;5070009;28;20271;-74
2021/03/16 06:49:12;;;;;;;22.57;6.70;;;;;;;2.55;87.13;100835.50;5072989;28;20252;-74
2021/03/16 06:51:38;;;;;;;8.60;6.33;;;;;;;2.66;86.41;100839.19;5070554;28;20204;-75
2021/03/16 06:54:08;;;;;;;18.67;6.50;;;;;;;2.70;86.81;100850.44;5068079;28;20208;-74
2021/03/16 06:56:34;;;;;;;12.03;6.33;;;;;;;2.73;85.82;100853.06;5068011;28;20229;-75
2021/03/16 06:59:00;;;;;;;13.70;6.27;;;;;;;2.77;86.17;100853.16;5072159;28;20618;-74
2021/03/16 07:01:31;;;;;;;18.23;6.53;;;;;;;2.86;86.13;100846.44;5070515;28;20216;-75
2021/03/16 07:03:58;;;;;;;17.27;5.40;;;;;;;2.86;85.24;100855.03;5072202;28;20607;-78
2021/03/16 07:06:24;;;;;;;9.37;5.00;;;;;;;2.92;85.62;100851.72;5071953;28;20302;-77
2021/03/16 07:08:50;;;;;;;22.27;6.50;;;;;;;3.00;85.10;100852.72;5075902;28;20664;-79
2021/03/16 07:11:18;;;;;;;15.30;5.97;;;;;;;3.08;84.06;100853.72;5072010;28;20201;-77
2021/03/16 07:13:44;;;;;;;10.53;5.07;;;;;;;3.15;84.06;100859.84;5072116;28;20231;-79
2021/03/16 07:16:11;;;;;;;18.43;5.63;;;;;;;3.24;84.09;100861.75;5072979;28;20229;-77
2021/03/16 07:18:40;;;;;;;17.10;4.50;;;;;;;3.33;83.83;100861.88;5070846;28;20694;-77
2021/03/16 07:21:08;;;;;;;16.57;5.63;;;;;;;3.36;82.91;100856.78;5072372;28;20196;-78
2021/03/16 07:23:39;;;;;;;8.27;4.57;;;;;;;3.42;83.72;100856.88;5071140;28;20204;-77
2021/03/16 07:26:06;;;;;;;8.97;4.00;;;;;;;3.47;83.12;100865.59;5069759;28;20361;-77
2021/03/16 07:28:33;;;;;;;7.03;5.10;;;;;;;3.38;83.28;100866.28;5069692;28;20727;-77
2021/03/16 07:30:59;;;;;;;11.93;4.83;;;;;;;3.49;84.47;100858.75;5070048;28;20292;-77
2021/03/16 07:33:27;;;;;;;11.73;4.30;;;;;;;3.46;83.86;100860.41;5071448;28;20201;-77
2021/03/16 07:35:57;;;;;;;11.40;4.27;;;;;;;3.51;83.48;100858.78;5071353;28;20221;-79
2021/03/16 07:38:23;;;;;;;11.20;3.40;;;;;;;3.50;82.70;100854.44;5074859;28;20654;-79
2021/03/16 07:40:51;;;;;;;14.47;3.50;;;;;;;3.51;82.86;100859.63;5072129;28;20210;-78
2021/03/16 07:43:17;;;;;;;16.03;3.60;;;;;;;3.59;81.67;100854.59;5071059;28;20609;-77
2021/03/16 07:45:43;;;;;;;13.73;4.47;;;;;;;3.69;81.83;100856.47;5068699;28;20213;-77
2021/03/16 07:48:14;;;;;;;10.87;3.17;;;;;;;3.84;81.07;100862.72;5072740;28;20668;-74
2021/03/16 07:50:40;;;;;;;13.27;3.17;;;;;;;3.82;80.89;100862.69;5066370;28;20204;-74
2021/03/16 07:53:07;;;;;;;8.43;4.20;;;;;;;3.76;81.67;100860.88;5071130;28;20208;-77
2021/03/16 07:55:33;;;;;;;10.13;3.03;;;;;;;3.88;81.27;100861.91;5063653;28;20236;-77
2021/03/16 07:58:07;;;;;;;12.80;3.20;;;;;;;3.95;80.63;100862.03;5069132;28;20197;-76
2021/03/16 08:00:33;;;;;;;8.83;2.50;;;;;;;4.07;80.50;100871.69;5065032;28;20524;-76
2021/03/16 08:03:00;;;;;;;8.93;2.90;;;;;;;4.06;79.72;100869.06;5070697;28;20197;-77
2021/03/16 08:05:26;;;;;;;7.80;2.80;;;;;;;4.07;80.02;100873.41;5071227;28;20225;-76
2021/03/16 08:07:53;;;;;;;6.57;2.87;;;;;;;4.11;80.30;100868.31;5070327;28;20236;-77
2021/03/16 08:10:28;;;;;;;12.50;2.53;;;;;;;4.13;79.29;100876.09;5070105;28;20288;-77
2021/03/16 08:13:01;;;;;;;9.43;2.30;;;;;;;4.17;78.77;100888.19;5068647;28;20200;-76
2021/03/16 08:15:27;;;;;;;21.10;3.27;;;;;;;4.26;78.68;100887.44;5068241;28;20240;-78
2021/03/16 08:17:59;;;;;;;8.60;2.80;;;;;;;4.36;79.30;100890.19;5071162;28;20667;-76
2021/03/16 08:20:25;;;;;;;7.43;2.40;;;;;;;4.44;79.68;100879.97;5068550;28;20262;-76
2021/03/16 08:23:03;;;;;;;13.33;3.10;;;;;;;4.36;79.06;100886.72;5071464;28;20197;-75
2021/03/16 08:25:31;;;;;;;11.23;2.60;;;;;;;4.31;78.63;100894.41;5067693;28;20274;-76
2021/03/16 08:27:57;;;;;;;9.50;2.70;;;;;;;4.31;78.74;100898.72;5071733;28;20274;-76
2021/03/16 08:30:25;;;;;;;7.30;2.40;;;;;;;4.36;77.30;100892.78;5068749;28;20666;-77
2021/03/16 08:32:51;;;;;;;6.43;2.87;;;;;;;4.42;76.69;100891.09;5069816;28;20294;-75
2021/03/16 08:35:17;;;;;;;7.03;1.73;;;;;;;4.44;76.38;100886.81;5069031;28;20221;-75
2021/03/16 08:37:43;;;;;;;5.90;1.67;;;;;;;4.41;75.58;100899.72;5068616;28;20225;-79
2021/03/16 08:40:10;;;;;;;6.37;1.80;;;;;;;4.55;75.43;100899.03;5069663;28;20283;-77
2021/03/16 08:42:37;;;;;;;7.90;2.03;;;;;;;4.65;75.68;100896.59;5068891;28;20246;-79
2021/03/16 08:45:04;;;;;;;4.30;1.77;;;;;;;4.56;74.85;100898.22;5072139;28;20656;-79
2021/03/16 08:47:30;;;;;;;5.43;1.17;;;;;;;4.57;75.36;100899.94;5068621;28;20676;-78
2021/03/16 08:49:56;;;;;;;4.63;1.87;;;;;;;4.51;76.82;100901.59;5070592;28;20203;-78
2021/03/16 08:52:23;;;;;;;3.87;1.30;;;;;;;4.42;76.37;100904.91;5069114;28;20201;-78
2021/03/16 08:54:51;;;;;;;4.13;1.70;;;;;;;4.43;76.31;100911.81;5072228;28;20217;-77
2021/03/16 08:57:17;;;;;;;4.90;1.70;;;;;;;4.51;76.99;100912.78;5067846;28;20227;-77
2021/03/16 08:59:47;;;;;;;4.03;1.50;;;;;;;4.62;76.93;100920.69;5071611;28;20726;-76
2021/03/16 09:02:19;;;;;;;7.17;2.20;;;;;;;4.63;77.01;100930.16;5065254;28;20213;-77
2021/03/16 09:04:45;;;;;;;6.00;1.87;;;;;;;4.75;77.56;100919.97;5071953;28;20644;-77
2021/03/16 09:07:11;;;;;;;6.80;2.30;;;;;;;4.70;76.63;100929.41;5069403;28;20225;-77
2021/03/16 09:09:36;;;;;;;3.60;1.63;;;;;;;4.76;77.05;100923.47;5069599;28;20207;-77
2021/03/16 09:12:03;;;;;;;3.80;1.57;;;;;;;4.80;76.24;100916.59;5068518;28;20233;-77
2021/03/16 09:14:29;;;;;;;4.87;1.70;;;;;;;4.91;75.16;100928.78;5071211;28;20251;-77
2021/03/16 09:16:56;;;;;;;4.93;1.50;;;;;;;4.93;75.52;100921.06;5068937;28;20221;-76
2021/03/16 09:19:23;;;;;;;4.87;1.97;;;;;;;5.03;75.70;100922.91;5073363;28;20726;-77
2021/03/16 09:21:51;;;;;;;4.67;2.00;;;;;;;4.97;76.23;100930.59;5068860;28;20208;-76
2021/03/16 09:24:23;;;;;;;6.30;2.17;;;;;;;4.76;77.87;100923.47;5071036;28;20206;-76
2021/03/16 09:27:00;;;;;;;5.63;2.40;;;;;;;4.67;78.69;100921.59;5068687;28;20221;-78
2021/03/16 09:29:29;;;;;;;6.00;2.23;;;;;;;4.70;78.30;100923.38;5070562;28;20559;-77
2021/03/16 09:31:57;;;;;;;8.47;2.17;;;;;;;4.67;78.01;100919.03;5066218;28;20204;-75
2021/03/16 09:34:23;;;;;;;3.53;2.20;;;;;;;4.74;78.01;100925.16;5070997;28;20263;-75
2021/03/16 09:37:00;;;;;;;5.10;1.70;;;;;;;4.76;78.47;100923.47;5069009;28;20647;-79
2021/03/16 09:39:32;;;;;;;8.43;2.47;;;;;;;4.79;78.34;100920.91;5077902;28;20208;-79
2021/03/16 09:45:24;;;;;;;3.63;1.20;;;;;;;4.86;77.07;100924.44;5031072;22;20293;-78
2021/03/16 09:47:52;;;;;;;7.13;1.60;;;;;;;4.89;75.88;100914.97;5085632;28;20204;-78
2021/03/16 09:50:20;;;;;;;4.63;1.53;;;;;;;4.85;76.04;100914.94;5084625;28;20206;-78
2021/03/16 09:52:47;;;;;;;1.97;1.07;;;;;;;4.88;76.25;100915.84;5086407;28;20283;-78
2021/03/16 09:55:17;;;;;;;5.40;2.07;;;;;;;4.83;76.67;100911.47;5088208;28;20230;-78
2021/03/16 09:57:47;;;;;;;3.93;1.70;;;;;;;4.75;77.17;100917.41;5093368;28;20212;-78
2021/03/16 10:00:16;;;;;;;4.10;1.77;;;;;;;4.86;77.70;100917.53;5091589;28;20196;-78
2021/03/16 10:02:42;;;;;;;4.53;2.00;;;;;;;4.93;76.96;100928.81;5090715;28;20209;-78
2021/03/16 10:05:11;;;;;;;6.57;1.93;;;;;;;5.12;75.27;100924.75;5092987;28;20587;-78
2021/03/16 10:07:38;;;;;;;4.93;1.20;;;;;;;5.25;74.08;100929.22;5091303;28;20208;-81
2021/03/16 10:10:10;;;;;;;3.30;2.47;;;;;;;5.38;74.29;100935.38;5089334;28;20205;-81
2021/03/16 10:12:37;;;;;;;2.63;1.30;;;;;;;5.43;73.67;100943.16;5087870;28;20843;-81
2021/03/16 10:15:05;;;;;;;3.60;1.17;;;;;;;5.29;74.67;100937.84;5097811;28;20659;-82
2021/03/16 10:17:32;;;;;;;3.70;1.10;;;;;;;5.33;74.30;100931.84;5088828;28;20260;-79
2021/03/16 10:20:00;;;;;;;4.43;1.07;;;;;;;5.46;73.99;100928.53;5093705;28;20204;-82
2021/03/16 10:22:28;;;;;;;2.00;1.00;;;;;;;5.59;73.44;100937.31;5090712;28;20468;-80
2021/03/16 10:24:55;;;;;;;1.53;1.10;;;;;;;5.65;72.57;100939.97;5093553;28;20257;-77
2021/03/16 10:27:26;;;;;;;1.67;0.67;;;;;;;5.61;72.12;100938.19;5094317;28;20206;-80
2021/03/16 10:29:53;;;;;;;1.43;0.90;;;;;;;5.52;71.93;100938.97;5097393;28;20203;-80
2021/03/16 10:32:19;;;;;;;1.47;0.90;;;;;;;5.61;72.56;100939.91;5101313;28;20295;-77
2021/03/16 10:34:45;;;;;;;1.90;1.10;;;;;;;5.63;73.30;100938.19;5088747;28;20285;-76
2021/03/16 10:37:22;;;;;;;4.23;1.27;;;;;;;5.50;73.29;100943.25;5086141;28;20666;-77
2021/03/16 10:39:50;;;;;;;2.83;1.60;;;;;;;5.48;73.93;100936.34;5092307;28;20202;-77
2021/03/16 10:42:16;;;;;;;2.47;2.10;;;;;;;5.26;76.63;100935.25;5088281;28;20592;-77
2021/03/16 10:44:42;;;;;;;3.23;2.00;;;;;;;5.23;76.95;100948.13;5089642;28;20308;-77
2021/03/16 10:47:08;;;;;;;3.33;1.67;;;;;;;5.24;77.65;100957.66;5090108;28;20218;-77
2021/03/16 10:49:35;;;;;;;1.97;1.30;;;;;;;5.33;77.61;100955.16;5091191;28;20196;-79
2021/03/16 10:52:02;;;;;;;3.97;1.47;;;;;;;5.30;77.36;100950.81;5089975;28;20498;-78
2021/03/16 10:54:28;;;;;;;2.40;1.50;;;;;;;5.16;76.35;100949.81;5089708;28;20203;-78
2021/03/16 10:56:55;;;;;;;2.37;2.00;;;;;;;5.17;75.68;100942.06;5092911;28;20241;-78
2021/03/16 10:59:22;;;;;;;3.20;1.90;;;;;;;5.23;76.05;100948.13;5088174;28;20417;-78
2021/03/16 11:01:49;;;;;;;3.50;2.37;;;;;;;5.47;75.91;100948.41;5092326;28;20613;-78
2021/03/16 11:04:17;;;;;;;2.97;1.50;;;;;;;5.57;74.06;100934.69;5092077;28;20212;-78
2021/03/16 11:06:43;;;;;;;2.83;1.57;;;;;;;5.84;73.45;100942.69;5087405;28;20530;-78
2021/03/16 11:09:09;;;;;;;2.57;1.70;;;;;;;6.03;72.98;100942.03;5090035;28;20291;-78
2021/03/16 11:11:35;;;;;;;3.03;1.80;;;;;;;6.03;72.66;100951.53;5087896;28;20299;-77
2021/03/16 11:14:02;;;;;;;3.27;2.03;;;;;;;6.15;72.38;100942.13;5093077;28;20543;-78
2021/03/16 11:16:28;;;;;;;1.67;1.53;;;;;;;6.08;72.76;100942.91;5091384;28;20318;-78
2021/03/16 11:18:54;;;;;;;3.00;1.57;;;;;;;6.20;72.57;100938.69;5094900;28;20291;-79
2021/03/16 11:21:20;;;;;;;2.60;1.00;;;;;;;6.38;72.63;100940.53;5093752;28;20234;-79
2021/03/16 11:23:47;;;;;;;4.47;1.00;;;;;;;6.36;71.58;100949.19;5093165;28;20207;-78
2021/03/16 11:26:13;;;;;;;2.43;0.97;;;;;;;5.68;76.37;100955.50;5089891;28;20755;-79
2021/03/16 11:28:39;;;;;;;3.33;1.50;;;;;;;5.47;79.73;100965.66;5093890;28;20201;-79
2021/03/16 11:31:06;;;;;;;4.63;3.57;;;;;;;5.17;80.17;100960.19;5089139;28;20680;-79
2021/03/16 11:33:32;;;;;;;2.63;1.50;;;;;;;5.26;80.24;100955.94;5092241;28;20203;-79